createdAt,value
2018-09-21T00:01:13.531Z,46.80
2018-09-21T00:03:46.176Z,46.80
2018-09-21T00:06:14.595Z,46.90
2018-09-21T00:08:43.013Z,46.80
2018-09-21T00:11:11.429Z,46.90
2018-09-21T00:13:39.827Z,46.90
2018-09-21T00:16:08.250Z,46.90
2018-09-21T00:18:36.660Z,46.90
2018-09-21T00:21:05.109Z,46.90
2018-09-21T00:23:33.480Z,46.80
2018-09-21T00:26:01.981Z,47.40
2018-09-21T00:28:30.436Z,46.80
2018-09-21T00:30:58.863Z,46.80
2018-09-21T00:33:27.282Z,46.90
2018-09-21T00:35:55.692Z,46.80
2018-09-21T00:38:24.108Z,47.00
2018-09-21T00:40:53.187Z,47.10
2018-09-21T00:43:21.650Z,47.10
2018-09-21T00:45:50.054Z,47.20
2018-09-21T00:48:18.460Z,47.20
2018-09-21T00:50:46.918Z,47.20
2018-09-21T00:53:15.445Z,47.30
2018-09-21T00:55:43.874Z,47.30
2018-09-21T00:58:12.284Z,47.30
2018-09-21T01:00:40.696Z,47.30
2018-09-21T01:03:09.137Z,47.30
2018-09-21T01:05:37.550Z,47.40
2018-09-21T01:08:05.996Z,47.40
2018-09-21T01:10:34.426Z,47.40
2018-09-21T01:13:02.850Z,47.50
2018-09-21T01:15:31.272Z,47.60
2018-09-21T01:17:59.698Z,48.30
2018-09-21T01:20:28.125Z,47.60
2018-09-21T01:22:56.544Z,47.80
2018-09-21T01:25:24.956Z,47.90
2018-09-21T01:27:53.392Z,47.90
2018-09-21T01:30:21.803Z,47.80
2018-09-21T01:32:50.229Z,47.90
2018-09-21T01:35:18.668Z,48.10
2018-09-21T01:37:47.078Z,48.10
2018-09-21T01:40:15.486Z,48.10
2018-09-21T01:42:43.914Z,48.10
2018-09-21T01:45:12.323Z,48.20
2018-09-21T01:47:40.749Z,48.20
2018-09-21T01:50:09.199Z,48.30
2018-09-21T01:52:37.604Z,48.30
2018-09-21T01:55:06.050Z,48.40
2018-09-21T01:57:34.445Z,48.40
2018-09-21T02:00:02.925Z,48.50
2018-09-21T02:02:31.388Z,48.60
2018-09-21T02:04:59.813Z,48.60
2018-09-21T02:07:28.304Z,48.60
2018-09-21T02:09:56.760Z,48.70
2018-09-21T02:12:25.189Z,48.70
2018-09-21T02:14:53.610Z,48.80
2018-09-21T02:17:22.045Z,48.80
2018-09-21T02:19:50.506Z,48.80
2018-09-21T02:22:18.937Z,48.80
2018-09-21T02:24:47.396Z,48.80
2018-09-21T02:27:15.830Z,48.70
2018-09-21T02:29:44.276Z,48.70
2018-09-21T02:32:12.709Z,48.80
2018-09-21T02:34:41.107Z,48.80
2018-09-21T02:37:09.553Z,48.80
2018-09-21T02:39:37.973Z,48.90
2018-09-21T02:42:06.432Z,48.90
2018-09-21T02:44:34.884Z,48.90
2018-09-21T02:47:03.317Z,49.00
2018-09-21T02:49:31.739Z,48.90
2018-09-21T02:52:00.185Z,49.00
2018-09-21T02:54:28.621Z,49.00
2018-09-21T02:56:57.059Z,49.10
2018-09-21T02:59:25.483Z,49.00
2018-09-21T03:01:53.888Z,49.00
2018-09-21T03:04:22.303Z,48.90
2018-09-21T03:06:50.996Z,49.00
2018-09-21T03:09:19.444Z,48.90
2018-09-21T03:11:47.884Z,48.90
2018-09-21T03:14:16.390Z,48.90
2018-09-21T03:16:44.842Z,48.90
2018-09-21T03:19:13.256Z,48.90
2018-09-21T03:21:41.687Z,49.00
2018-09-21T03:24:10.118Z,49.00
2018-09-21T03:26:38.566Z,48.80
2018-09-21T03:29:06.982Z,48.90
2018-09-21T03:31:35.370Z,48.90
2018-09-21T03:34:03.816Z,48.90
2018-09-21T03:36:32.232Z,48.90
2018-09-21T03:39:00.666Z,48.90
2018-09-21T03:41:29.077Z,48.90
2018-09-21T03:43:57.524Z,48.90
2018-09-21T03:46:25.970Z,48.80
2018-09-21T03:48:54.406Z,48.90
2018-09-21T03:51:22.817Z,49.00
2018-09-21T03:53:51.226Z,49.00
2018-09-21T03:56:19.646Z,49.00
2018-09-21T03:58:48.064Z,49.00
2018-09-21T04:01:16.531Z,49.10
2018-09-21T04:03:44.894Z,49.00
2018-09-21T04:06:13.313Z,49.00
2018-09-21T04:08:41.725Z,48.90
2018-09-21T04:11:10.154Z,49.00
2018-09-21T04:13:38.643Z,49.00
2018-09-21T04:16:07.315Z,49.00
2018-09-21T04:18:35.734Z,48.90
2018-09-21T04:21:04.148Z,49.00
2018-09-21T04:23:32.577Z,48.90
2018-09-21T04:26:00.998Z,48.80
2018-09-21T04:28:29.460Z,48.70
2018-09-21T04:30:57.904Z,48.80
2018-09-21T04:33:26.332Z,48.90
2018-09-21T04:35:54.786Z,49.10
2018-09-21T04:38:23.192Z,49.10
2018-09-21T04:40:51.630Z,49.10
2018-09-21T04:43:20.057Z,49.10
2018-09-21T04:45:48.535Z,49.00
2018-09-21T04:48:16.918Z,48.80
2018-09-21T04:50:45.352Z,48.80
2018-09-21T04:53:13.922Z,48.90
2018-09-21T04:55:42.382Z,48.90
2018-09-21T04:58:10.833Z,49.00
2018-09-21T05:00:39.308Z,49.10
2018-09-21T05:03:07.777Z,49.50
2018-09-21T05:05:36.249Z,49.70
2018-09-21T05:08:04.746Z,50.00
2018-09-21T05:10:33.192Z,50.00
2018-09-21T05:13:01.610Z,50.50
2018-09-21T05:15:30.017Z,50.60
2018-09-21T05:17:58.437Z,50.60
2018-09-21T05:20:26.942Z,50.50
2018-09-21T05:22:55.355Z,50.60
2018-09-21T05:25:23.764Z,50.60
2018-09-21T05:27:52.226Z,50.70
2018-09-21T05:30:20.636Z,50.80
2018-09-21T05:32:49.053Z,51.00
2018-09-21T05:35:17.561Z,51.40
2018-09-21T05:37:45.976Z,51.60
2018-09-21T05:40:14.407Z,51.90
2018-09-21T05:42:42.831Z,52.00
2018-09-21T05:45:11.283Z,52.30
2018-09-21T05:47:40.031Z,52.60
2018-09-21T05:50:08.481Z,53.10
2018-09-21T05:52:36.906Z,53.50
2018-09-21T05:55:05.625Z,54.40
2018-09-21T05:57:34.092Z,53.90
2018-09-21T06:00:02.553Z,54.50
2018-09-21T06:02:31.094Z,54.70
2018-09-21T06:05:03.887Z,54.70
2018-09-21T06:07:32.513Z,55.10
2018-09-21T06:10:00.949Z,55.50
2018-09-21T06:12:29.384Z,55.50
2018-09-21T06:14:57.845Z,55.90
2018-09-21T06:17:26.331Z,55.90
2018-09-21T06:19:55.016Z,56.10
2018-09-21T06:22:23.548Z,55.90
2018-09-21T06:24:51.998Z,56.10
2018-09-21T06:27:20.405Z,56.30
2018-09-21T06:29:48.859Z,56.30
2018-09-21T06:32:17.299Z,56.50
2018-09-21T06:34:45.774Z,56.80
2018-09-21T06:37:14.290Z,56.90
2018-09-21T06:39:42.939Z,56.90
2018-09-21T06:42:11.389Z,57.10
2018-09-21T06:44:39.849Z,57.10
2018-09-21T06:47:09.626Z,57.30
2018-09-21T06:49:44.715Z,57.20
2018-09-21T06:52:19.780Z,56.60
2018-09-21T06:54:48.274Z,56.50
2018-09-21T06:57:16.822Z,56.30
2018-09-21T06:59:45.235Z,56.10
2018-09-21T07:02:13.688Z,56.30
2018-09-21T07:04:42.110Z,56.50
2018-09-21T07:07:10.882Z,56.80
2018-09-21T07:09:39.306Z,56.60
2018-09-21T07:12:07.764Z,56.20
2018-09-21T07:14:36.231Z,56.10
2018-09-21T07:17:04.697Z,55.70
2018-09-21T07:19:33.174Z,55.40
2018-09-21T07:22:01.600Z,55.10
2018-09-21T07:24:30.032Z,55.20
2018-09-21T07:26:58.467Z,54.90
2018-09-21T07:29:26.919Z,55.00
2018-09-21T07:31:55.357Z,54.70
2018-09-21T07:34:23.812Z,54.70
2018-09-21T07:36:52.247Z,55.00
2018-09-21T07:39:20.690Z,55.00
2018-09-21T07:41:49.151Z,55.10
2018-09-21T07:44:17.631Z,55.20
2018-09-21T07:46:46.030Z,55.50
2018-09-21T07:49:14.481Z,55.80
2018-09-21T07:51:42.927Z,56.00
2018-09-21T07:54:11.343Z,55.80
2018-09-21T07:56:39.819Z,56.00
2018-09-21T07:59:08.307Z,56.00
2018-09-21T08:01:36.758Z,55.80
2018-09-21T08:04:05.183Z,55.80
2018-09-21T08:06:33.639Z,55.90
2018-09-21T08:09:02.124Z,55.80
2018-09-21T08:11:30.571Z,55.70
2018-09-21T08:13:58.999Z,55.80
2018-09-21T08:16:27.425Z,55.60
2018-09-21T08:18:55.860Z,55.90
2018-09-21T08:21:24.304Z,56.20
2018-09-21T08:23:52.766Z,56.10
2018-09-21T08:26:21.195Z,56.20
2018-09-21T08:28:49.680Z,56.30
2018-09-21T08:31:18.192Z,56.30
2018-09-21T08:33:46.663Z,56.10
2018-09-21T08:36:15.090Z,56.20
2018-09-21T08:38:43.528Z,55.90
2018-09-21T08:41:11.952Z,55.80
2018-09-21T08:43:40.374Z,56.00
2018-09-21T08:46:08.836Z,55.90
2018-09-21T08:48:37.282Z,56.00
2018-09-21T08:51:05.890Z,56.00
2018-09-21T08:53:34.326Z,56.30
2018-09-21T08:56:02.776Z,56.00
2018-09-21T08:58:31.244Z,56.10
2018-09-21T09:00:59.707Z,56.10
2018-09-21T09:03:28.152Z,56.10
2018-09-21T09:05:56.571Z,56.00
2018-09-21T09:08:25.766Z,56.20
2018-09-21T09:10:54.621Z,55.80
2018-09-21T09:13:23.016Z,55.70
2018-09-21T09:15:51.796Z,55.60
2018-09-21T09:18:20.247Z,55.60
2018-09-21T09:20:48.706Z,55.60
2018-09-21T09:23:17.205Z,55.20
2018-09-21T09:25:45.576Z,55.30
2018-09-21T09:28:14.006Z,55.00
2018-09-21T09:30:42.431Z,54.10
2018-09-21T09:33:10.918Z,53.60
2018-09-21T09:35:39.349Z,53.20
2018-09-21T09:38:07.773Z,52.80
2018-09-21T09:40:36.198Z,52.60
2018-09-21T09:43:04.704Z,52.20
2018-09-21T09:45:33.130Z,51.30
2018-09-21T09:48:01.534Z,50.30
2018-09-21T09:50:30.025Z,50.70
2018-09-21T09:52:58.468Z,50.00
2018-09-21T09:55:26.895Z,49.70
2018-09-21T09:57:55.347Z,49.50
2018-09-21T10:00:28.945Z,49.20
2018-09-21T10:02:57.415Z,48.60
2018-09-21T10:05:25.867Z,48.30
2018-09-21T10:07:54.328Z,48.50
2018-09-21T10:10:22.822Z,48.10
2018-09-21T10:12:51.232Z,47.60
2018-09-21T10:15:19.734Z,47.30
2018-09-21T10:17:48.276Z,47.40
2018-09-21T10:20:16.729Z,47.40
2018-09-21T10:22:45.175Z,47.10
2018-09-21T10:25:13.657Z,47.20
2018-09-21T10:27:42.221Z,46.80
2018-09-21T10:30:10.553Z,46.60
2018-09-21T10:32:38.989Z,46.20
2018-09-21T10:35:07.432Z,45.90
2018-09-21T10:37:35.851Z,45.60
2018-09-21T10:40:04.387Z,45.50
2018-09-21T10:42:32.831Z,45.40
2018-09-21T10:45:01.231Z,45.30
2018-09-21T10:47:30.499Z,45.50
2018-09-21T10:49:58.935Z,45.40
2018-09-21T10:52:27.339Z,45.30
2018-09-21T10:54:55.792Z,44.70
2018-09-21T10:57:24.221Z,44.80
2018-09-21T10:59:52.735Z,44.60
2018-09-21T11:02:21.224Z,44.60
2018-09-21T11:04:49.685Z,44.10
2018-09-21T11:07:18.180Z,43.90
2018-09-21T11:09:46.612Z,43.50
2018-09-21T11:12:15.057Z,43.30
2018-09-21T11:14:43.479Z,43.30
2018-09-21T11:17:12.003Z,43.30
2018-09-21T11:19:40.470Z,43.40
2018-09-21T11:22:09.351Z,43.00
2018-09-21T11:24:37.782Z,42.60
2018-09-21T11:27:06.321Z,42.50
2018-09-21T11:29:34.749Z,42.20
2018-09-21T11:32:03.241Z,41.90
2018-09-21T11:34:31.686Z,42.00
2018-09-21T11:37:00.121Z,42.30
2018-09-21T11:39:28.531Z,42.20
2018-09-21T11:41:57.053Z,42.30
2018-09-21T11:44:25.499Z,42.50
2018-09-21T11:46:54.063Z,42.50
2018-09-21T11:49:22.435Z,42.60
2018-09-21T11:51:50.917Z,42.60
2018-09-21T11:54:19.386Z,43.00
2018-09-21T11:56:47.834Z,43.30
2018-09-21T11:59:16.300Z,43.30
2018-09-21T12:01:44.771Z,43.30
2018-09-21T12:04:13.214Z,43.10
2018-09-21T12:06:41.674Z,43.10
2018-09-21T12:09:10.114Z,42.40
2018-09-21T12:11:38.533Z,43.00
2018-09-21T12:14:06.962Z,40.80
2018-09-21T12:16:35.400Z,38.90
2018-09-21T12:19:03.840Z,38.80
2018-09-21T12:21:32.296Z,39.00
2018-09-21T12:24:00.736Z,38.90
2018-09-21T12:26:29.176Z,38.30
2018-09-21T12:28:57.623Z,38.70
2018-09-21T12:31:26.053Z,38.90
2018-09-21T12:33:54.616Z,38.70
2018-09-21T12:36:23.171Z,38.90
2018-09-21T12:38:51.598Z,39.10
2018-09-21T12:41:20.057Z,38.70
2018-09-21T12:43:48.562Z,38.40
2018-09-21T12:46:23.983Z,38.30
2018-09-21T12:48:55.207Z,38.40
2018-09-21T12:51:23.866Z,38.10
2018-09-21T12:53:52.281Z,37.80
2018-09-21T12:56:20.733Z,38.00
2018-09-21T12:58:49.341Z,37.90
2018-09-21T13:01:17.696Z,38.20
2018-09-21T13:03:46.182Z,38.50
2018-09-21T13:06:14.861Z,38.40
2018-09-21T13:08:43.291Z,38.30
2018-09-21T13:11:11.721Z,38.30
2018-09-21T13:15:34.497Z,38.60
2018-09-21T13:18:04.225Z,34.50
2018-09-21T13:20:32.735Z,30.20
2018-09-21T13:23:01.438Z,28.10
2018-09-21T13:25:30.088Z,28.70
2018-09-21T13:27:58.737Z,27.50
2018-09-21T13:30:27.333Z,26.90
2018-09-21T13:32:56.015Z,27.70
2018-09-21T13:35:24.647Z,27.90
2018-09-21T13:37:53.291Z,27.50
2018-09-21T13:40:21.816Z,26.50
2018-09-21T13:42:50.498Z,28.00
2018-09-21T13:45:19.406Z,27.70
2018-09-21T13:47:48.153Z,28.70
2018-09-21T13:50:16.657Z,29.70
2018-09-21T13:52:45.298Z,30.70
2018-09-21T13:55:13.815Z,29.90
2018-09-21T13:57:43.407Z,31.30
2018-09-21T14:00:12.655Z,30.10
2018-09-21T14:02:42.495Z,32.90
2018-09-21T14:05:11.297Z,35.00
2018-09-21T14:07:40.616Z,36.40
2018-09-21T14:10:09.338Z,36.20
2018-09-21T14:12:38.260Z,35.90
2018-09-21T14:15:07.420Z,36.40
2018-09-21T14:17:35.937Z,37.60
2018-09-21T14:20:04.550Z,37.40
2018-09-21T14:22:33.120Z,37.30
2018-09-21T14:25:01.976Z,36.50
2018-09-21T14:27:30.481Z,34.30
2018-09-21T14:29:59.074Z,35.80
2018-09-21T14:32:27.584Z,36.70
2018-09-21T14:34:56.261Z,38.00
2018-09-21T14:37:24.765Z,39.00
2018-09-21T14:39:53.431Z,39.70
2018-09-21T14:42:22.095Z,40.10
2018-09-21T14:44:50.638Z,40.30
2018-09-21T14:47:19.320Z,38.30
2018-09-21T14:49:47.822Z,37.90
2018-09-21T14:52:16.427Z,38.40
2018-09-21T14:54:44.962Z,37.60
2018-09-21T14:57:15.720Z,35.60
2018-09-21T14:59:44.319Z,34.30
2018-09-21T15:02:12.948Z,35.00
2018-09-21T15:04:41.689Z,35.70
2018-09-21T15:07:10.375Z,34.80
2018-09-21T15:09:38.973Z,35.70
2018-09-21T15:12:07.744Z,34.90
2018-09-21T15:14:37.448Z,36.90
2018-09-21T15:17:06.007Z,36.90
2018-09-21T15:19:34.617Z,37.90
2018-09-21T15:22:03.179Z,37.70
2018-09-21T15:24:31.776Z,37.40
2018-09-21T15:27:00.767Z,39.20
2018-09-21T15:29:29.375Z,39.70
2018-09-21T15:31:57.903Z,39.20
2018-09-21T15:34:26.565Z,40.20
2018-09-21T15:36:55.106Z,39.70
2018-09-21T15:39:23.736Z,40.20
2018-09-21T15:41:52.243Z,40.80
2018-09-21T15:44:20.869Z,40.80
2018-09-21T15:46:49.413Z,40.60
2018-09-21T15:49:18.031Z,41.10
2018-09-21T15:51:46.743Z,41.30
2018-09-21T15:54:15.258Z,41.10
2018-09-21T15:56:43.807Z,41.80
2018-09-21T15:59:12.390Z,41.80
2018-09-21T16:01:41.703Z,41.90
2018-09-21T16:04:10.175Z,41.50
2018-09-21T16:06:39.988Z,41.70
2018-09-21T16:09:09.088Z,42.40
2018-09-21T16:11:38.716Z,41.20
2018-09-21T16:14:08.242Z,41.50
2018-09-21T16:16:37.773Z,41.60
2018-09-21T16:19:06.661Z,42.20
2018-09-21T16:21:35.213Z,42.10
2018-09-21T16:24:03.664Z,41.60
2018-09-21T16:26:32.148Z,41.20
2018-09-21T16:29:00.576Z,41.30
2018-09-21T16:31:29.056Z,41.30
2018-09-21T16:33:57.621Z,41.30
2018-09-21T16:36:26.165Z,42.00
2018-09-21T16:38:54.611Z,41.30
2018-09-21T16:41:23.180Z,40.60
2018-09-21T16:43:52.388Z,41.20
2018-09-21T16:46:20.852Z,41.00
2018-09-21T16:48:49.455Z,41.50
2018-09-21T16:51:18.004Z,41.40
2018-09-21T16:53:46.531Z,41.20
2018-09-21T16:56:15.083Z,41.00
2018-09-21T16:58:43.630Z,41.80
2018-09-21T17:01:12.242Z,42.00
2018-09-21T17:03:40.893Z,42.00
2018-09-21T17:06:09.446Z,42.50
2018-09-21T17:08:38.165Z,42.20
2018-09-21T17:11:06.746Z,42.30
2018-09-21T17:13:35.369Z,43.00
2018-09-21T17:16:03.898Z,42.90
2018-09-21T17:18:32.517Z,43.20
2018-09-21T17:21:01.063Z,43.40
2018-09-21T17:23:29.682Z,43.80
2018-09-21T17:25:58.526Z,44.20
2018-09-21T17:28:27.008Z,43.50
2018-09-21T17:30:55.468Z,43.90
2018-09-21T17:33:23.931Z,44.40
2018-09-21T17:35:52.403Z,44.70
2018-09-21T17:38:20.800Z,44.30
2018-09-21T17:40:49.198Z,45.00
2018-09-21T17:43:17.651Z,44.90
2018-09-21T17:45:46.196Z,44.60
2018-09-21T17:48:14.703Z,45.10
2018-09-21T17:50:43.141Z,45.20
2018-09-21T17:53:11.692Z,45.50
2018-09-21T17:55:40.092Z,45.70
2018-09-21T17:58:08.497Z,45.70
2018-09-21T18:00:36.907Z,45.60
2018-09-21T18:03:05.392Z,46.10
2018-09-21T18:05:33.822Z,46.30
2018-09-21T18:08:02.241Z,46.90
2018-09-21T18:10:30.659Z,46.60
2018-09-21T18:12:59.176Z,47.20
2018-09-21T18:15:27.713Z,46.90
2018-09-21T18:17:56.164Z,47.70
2018-09-21T18:20:24.604Z,47.70
2018-09-21T18:22:53.209Z,48.10
2018-09-21T18:25:21.652Z,48.40
2018-09-21T18:27:50.065Z,48.30
2018-09-21T18:30:18.555Z,48.30
2018-09-21T18:32:47.007Z,48.30
2018-09-21T18:35:15.528Z,48.80
2018-09-21T18:37:44.300Z,49.10
2018-09-21T18:40:12.758Z,49.30
2018-09-21T18:42:41.209Z,49.90
2018-09-21T18:45:09.675Z,50.20
2018-09-21T18:47:38.119Z,50.20
2018-09-21T18:50:06.753Z,50.30
2018-09-21T18:52:35.161Z,50.60
2018-09-21T18:55:03.843Z,50.80
2018-09-21T18:57:33.371Z,50.90
2018-09-21T19:00:01.819Z,51.40
2018-09-21T19:02:30.284Z,51.60
2018-09-21T19:04:58.692Z,51.90
2018-09-21T19:07:29.932Z,51.90
2018-09-21T19:09:59.181Z,52.30
2018-09-21T19:12:27.755Z,53.00
2018-09-21T19:14:56.224Z,52.90
2018-09-21T19:17:24.985Z,53.10
2018-09-21T19:19:53.729Z,53.20
2018-09-21T19:22:22.493Z,53.50
2018-09-21T19:24:50.912Z,53.70
2018-09-21T19:27:19.411Z,54.10
2018-09-21T19:29:47.882Z,54.50
2018-09-21T19:32:16.371Z,54.30
2018-09-21T19:34:46.447Z,54.70
2018-09-21T19:37:15.561Z,55.00
2018-09-21T19:39:44.037Z,55.20
2018-09-21T19:42:12.482Z,55.00
2018-09-21T19:44:40.998Z,55.10
2018-09-21T19:47:09.479Z,55.40
2018-09-21T19:49:37.914Z,55.50
2018-09-21T19:52:06.491Z,55.80
2018-09-21T19:54:34.988Z,55.60
2018-09-21T19:57:03.469Z,56.10
2018-09-21T19:59:32.057Z,56.10
2018-09-21T20:02:00.525Z,56.10
2018-09-21T20:04:28.956Z,56.40
2018-09-21T20:06:57.439Z,56.80
2018-09-21T20:09:25.877Z,56.60
2018-09-21T20:11:54.452Z,57.00
2018-09-21T20:14:22.904Z,57.00
2018-09-21T20:16:51.338Z,56.90
2018-09-21T20:19:19.891Z,57.10
2018-09-21T20:21:48.320Z,57.00
2018-09-21T20:24:16.784Z,57.00
2018-09-21T20:26:45.310Z,57.30
2018-09-21T20:29:13.735Z,57.50
2018-09-21T20:31:47.368Z,57.50
2018-09-21T20:34:15.822Z,57.70
2018-09-21T20:36:44.397Z,57.80
2018-09-21T20:39:12.874Z,57.60
2018-09-21T20:41:41.321Z,57.70
2018-09-21T20:44:10.634Z,58.10
2018-09-21T20:46:39.095Z,57.80
2018-09-21T20:49:07.583Z,57.90
2018-09-21T20:51:36.018Z,57.80
2018-09-21T20:54:04.532Z,58.10
2018-09-21T20:56:33.029Z,58.10
2018-09-21T20:59:01.551Z,58.10
2018-09-21T21:01:29.963Z,58.30
2018-09-21T21:03:58.496Z,58.80
2018-09-21T21:06:26.922Z,58.40
2018-09-21T21:08:55.340Z,58.20
2018-09-21T21:11:23.776Z,58.70
2018-09-21T21:13:52.300Z,58.70
2018-09-21T21:16:20.746Z,58.60
2018-09-21T21:18:49.201Z,58.90
2018-09-21T21:21:17.671Z,59.00
2018-09-21T21:23:46.293Z,59.10
2018-09-21T21:26:14.748Z,59.20
2018-09-21T21:28:43.202Z,59.20
2018-09-21T21:31:11.720Z,59.40
2018-09-21T21:33:40.228Z,59.70
2018-09-21T21:36:09.001Z,59.70
2018-09-21T21:38:37.450Z,59.80
2018-09-21T21:41:05.912Z,59.90
2018-09-21T21:43:34.352Z,60.10
2018-09-21T21:46:02.780Z,60.10
2018-09-21T21:48:31.226Z,60.10
2018-09-21T21:50:59.660Z,60.10
2018-09-21T21:53:28.114Z,60.30
2018-09-21T21:55:56.566Z,60.60
2018-09-21T21:58:25.067Z,60.70
2018-09-21T22:00:58.813Z,61.00
2018-09-21T22:03:27.276Z,61.40
2018-09-21T22:05:55.750Z,61.50
2018-09-21T22:08:24.163Z,62.00
2018-09-21T22:10:52.590Z,62.40
2018-09-21T22:13:26.245Z,62.30
2018-09-21T22:15:54.659Z,62.20
2018-09-21T22:18:23.108Z,62.40
2018-09-21T22:20:51.607Z,62.30
2018-09-21T22:23:20.096Z,62.10
2018-09-21T22:25:49.159Z,62.40
2018-09-21T22:28:17.603Z,62.60
2018-09-21T22:30:46.025Z,62.50
2018-09-21T22:33:14.428Z,62.70
2018-09-21T22:35:42.867Z,62.80
2018-09-21T22:38:11.352Z,62.90
2018-09-21T22:40:39.779Z,63.10
2018-09-21T22:43:08.279Z,63.40
2018-09-21T22:45:36.732Z,63.60
2018-09-21T22:48:05.528Z,63.70
2018-09-21T22:50:34.000Z,63.40
2018-09-21T22:53:02.455Z,63.90
2018-09-21T22:55:30.968Z,63.90
2018-09-21T22:57:59.451Z,63.70
2018-09-21T23:00:27.888Z,64.10
2018-09-21T23:02:56.339Z,64.20
2018-09-21T23:05:24.807Z,64.20
2018-09-21T23:07:53.515Z,64.60
2018-09-21T23:10:21.997Z,64.60
2018-09-21T23:12:50.415Z,64.70
2018-09-21T23:15:18.935Z,64.80
2018-09-21T23:17:47.507Z,65.20
2018-09-21T23:20:15.967Z,65.40
2018-09-21T23:22:44.774Z,65.10
2018-09-21T23:25:13.303Z,65.30
2018-09-21T23:27:41.728Z,65.30
2018-09-21T23:30:10.242Z,65.20
2018-09-21T23:32:38.701Z,65.50
2018-09-21T23:35:07.160Z,65.50
2018-09-21T23:37:35.597Z,65.50
2018-09-21T23:40:04.088Z,65.40
2018-09-21T23:42:32.527Z,65.70
2018-09-21T23:45:00.972Z,65.80
2018-09-21T23:47:29.573Z,66.10
2018-09-21T23:49:57.990Z,66.20
2018-09-21T23:52:26.508Z,66.60
2018-09-21T23:54:54.934Z,67.30
2018-09-21T23:57:23.360Z,66.90
2018-09-21T23:59:51.804Z,67.00
